Vancouver Int'l Airport, British Columbia

Past 24 Hour Conditions

This table is a summary of hourly weather conditions for the past 24 hours. This summary includes the following parameters: temperature, humidity, dew point, wind speed and direction, air pressure, visibility and/or wind chill and humidex.
Date / Time
(PDT)
Conditions Temp (°C) Humidity (%) Dew Point (°C) Wind (km/h) Pressure (kPa) Visibility (km)
01 October 2014
11:00 Mostly Cloudy 14 79 11 W 9 102.3 32
10:00 Mostly Cloudy 14 82 11 W 9 102.3 32
9:00 Mostly Cloudy 13 85 11 calm 102.3 32
8:00 Mostly Cloudy 11 93 10 E 7 102.2 32
7:00 Partly Cloudy 11 91 9 calm 102.2 32
6:00 Mainly Clear 11 92 9 N 3 102.2 32
5:00 Partly Cloudy 10   92 9 ESE 7 102.2 32
4:00 Mostly Cloudy 11 91 10 ESE 6 102.1 32
3:00 Mostly Cloudy 11 93 10 NE 7 102.1 32
2:00 Mostly Cloudy 11 91 10 NW 10 102.1 32
1:00 Mostly Cloudy 13 89 11 NW 9 102.1 32
00:00 Partly Cloudy 13 92 12 WNW 9 102.0 32
30 September 2014
23:00 Mainly Clear 14 83 11 W 17 102.0 32
22:00 Mainly Clear 14 79 11 WSW 25 102.0 32
21:00 Mainly Clear 15 80 11 WSW 24 101.9 32
20:00 Mainly Clear 15 80 11 W 32 101.9 48
19:00 Mainly Clear 15 80 11 WSW 27 gust 44 101.8 48
18:00 Partly Cloudy 16 68 10 W 30 101.8 48
17:00 Partly Cloudy 17 69 11 W 23 gust 39 101.8 48
16:00 Mainly Sunny 17 66 11 W 30 gust 46 101.8 48
15:00 Mainly Sunny 18   66 11 W 34 101.8 48
14:00 Partly Cloudy 18   64 11 W 33 101.8 48
13:00 Partly Cloudy 16 77 12 WSW 33 101.8 48
12:00 Partly Cloudy 16 76 12 W 29 gust 41 101.8 32
11:00 Mainly Sunny 16 80 12 WSW 30 gust 46 101.7 32
N/A
Not available
 ↑ 
Highest temperature
 ↓ 
Lowest temperature

If you require additional historical weather information, please visit Climate Data Online.